createdAt,value
2018-07-04T00:00:10.886Z,8.00
2018-07-04T00:01:10.883Z,4.00
2018-07-04T00:02:10.885Z,4.00
2018-07-04T00:03:10.894Z,8.00
2018-07-04T00:04:10.889Z,4.00
2018-07-04T00:05:10.890Z,8.00
2018-07-04T00:06:10.893Z,4.00
2018-07-04T00:07:10.891Z,4.00
2018-07-04T00:08:10.892Z,4.00
2018-07-04T00:09:10.894Z,4.00
2018-07-04T00:10:10.897Z,4.00
2018-07-04T00:11:10.899Z,4.00
2018-07-04T00:12:10.898Z,4.00
2018-07-04T00:13:10.903Z,4.00
2018-07-04T00:14:10.903Z,4.00
2018-07-04T00:15:10.901Z,4.00
2018-07-04T00:16:10.903Z,4.00
2018-07-04T00:17:10.904Z,4.00
2018-07-04T00:18:10.910Z,4.00
2018-07-04T00:19:10.906Z,8.00
2018-07-04T00:20:10.908Z,4.00
2018-07-04T00:21:10.910Z,4.00
2018-07-04T00:22:10.909Z,4.00
2018-07-04T00:23:10.914Z,4.00
2018-07-04T00:24:10.912Z,4.00
2018-07-04T00:25:10.912Z,4.00
2018-07-04T00:26:10.915Z,4.00
2018-07-04T00:27:10.919Z,4.00
2018-07-04T00:28:10.919Z,4.00
2018-07-04T00:29:10.918Z,4.00
2018-07-04T00:30:10.918Z,8.00
2018-07-04T00:31:10.919Z,8.00
2018-07-04T00:32:10.922Z,4.00
2018-07-04T00:33:10.921Z,8.00
2018-07-04T00:34:10.921Z,8.00
2018-07-04T00:35:10.942Z,8.00
2018-07-04T00:36:10.941Z,4.00
2018-07-04T00:37:10.925Z,4.00
2018-07-04T00:38:10.924Z,4.00
2018-07-04T00:39:10.926Z,4.00
2018-07-04T00:40:10.927Z,4.00
2018-07-04T00:41:10.927Z,4.00
2018-07-04T00:42:10.929Z,8.00
2018-07-04T00:43:10.928Z,4.00
2018-07-04T00:44:10.931Z,8.00
2018-07-04T00:45:10.934Z,4.00
2018-07-04T00:46:10.935Z,4.00
2018-07-04T00:47:10.931Z,4.00
2018-07-04T00:48:10.932Z,4.00
2018-07-04T00:49:10.933Z,4.00
2018-07-04T00:50:10.934Z,4.00
2018-07-04T00:51:10.936Z,8.00
2018-07-04T00:52:10.935Z,4.00
2018-07-04T00:53:10.940Z,4.00
2018-07-04T00:54:10.939Z,4.00
2018-07-04T00:55:10.937Z,4.00
2018-07-04T00:56:11.018Z,8.00
2018-07-04T00:57:10.942Z,4.00
2018-07-04T00:58:10.948Z,4.00
2018-07-04T00:59:10.941Z,4.00
2018-07-04T01:00:10.944Z,4.00
2018-07-04T01:01:10.945Z,4.00
2018-07-04T01:02:10.945Z,8.00
2018-07-04T01:03:10.944Z,4.00
2018-07-04T01:04:10.944Z,8.00
2018-07-04T01:05:10.946Z,8.00
2018-07-04T01:06:10.946Z,4.00
2018-07-04T01:07:10.945Z,4.00
2018-07-04T01:08:10.948Z,4.00
2018-07-04T01:09:10.948Z,4.00
2018-07-04T01:10:10.948Z,4.00
2018-07-04T01:11:10.948Z,4.00
2018-07-04T01:12:10.949Z,4.00
2018-07-04T01:13:10.955Z,4.00
2018-07-04T01:14:10.953Z,4.00
2018-07-04T01:15:10.951Z,8.00
2018-07-04T01:16:10.952Z,4.00
2018-07-04T01:17:10.954Z,4.00
2018-07-04T01:18:10.952Z,4.00
2018-07-04T01:19:10.951Z,8.00
2018-07-04T01:20:10.952Z,4.00
2018-07-04T01:21:10.953Z,4.00
2018-07-04T01:22:10.958Z,8.00
2018-07-04T01:23:10.962Z,4.00
2018-07-04T01:24:10.954Z,4.00
2018-07-04T01:25:10.956Z,4.00
2018-07-04T01:26:10.957Z,8.00
2018-07-04T01:27:10.956Z,4.00
2018-07-04T01:28:10.964Z,8.00
2018-07-04T01:29:10.957Z,4.00
2018-07-04T01:30:10.960Z,8.00
2018-07-04T01:31:10.957Z,4.00
2018-07-04T01:32:10.957Z,8.00
2018-07-04T01:33:10.958Z,8.00
2018-07-04T01:34:10.960Z,4.00
2018-07-04T01:35:10.974Z,4.00
2018-07-04T01:36:10.962Z,4.00
2018-07-04T01:37:10.961Z,4.00
2018-07-04T01:38:10.961Z,8.00
2018-07-04T01:39:10.960Z,8.00
2018-07-04T01:40:10.961Z,4.00
2018-07-04T01:41:10.960Z,4.00
2018-07-04T01:42:10.963Z,4.00
2018-07-04T01:43:10.960Z,4.00
2018-07-04T01:44:10.962Z,4.00
2018-07-04T01:45:10.962Z,4.00
2018-07-04T01:46:10.963Z,4.00
2018-07-04T01:47:10.962Z,8.00
2018-07-04T01:48:10.966Z,8.00
2018-07-04T01:49:10.964Z,8.00
2018-07-04T01:50:10.965Z,8.00
2018-07-04T01:51:10.965Z,8.00
2018-07-04T01:52:10.989Z,8.00
2018-07-04T01:53:10.967Z,8.00
2018-07-04T01:54:10.965Z,8.00
2018-07-04T01:55:10.965Z,4.00
2018-07-04T01:56:10.967Z,8.00
2018-07-04T01:57:10.968Z,4.00
2018-07-04T01:58:10.973Z,8.00
2018-07-04T01:59:10.966Z,4.00
2018-07-04T02:00:10.967Z,8.00
2018-07-04T02:01:10.975Z,8.00
2018-07-04T02:02:10.968Z,8.00
2018-07-04T02:03:10.970Z,8.00
2018-07-04T02:04:10.971Z,8.00
2018-07-04T02:05:10.975Z,8.00
2018-07-04T02:06:10.986Z,8.00
2018-07-04T02:07:10.969Z,8.00
2018-07-04T02:08:10.980Z,8.00
2018-07-04T02:09:10.977Z,8.00
2018-07-04T02:10:10.969Z,8.00
2018-07-04T02:11:10.974Z,8.00
2018-07-04T02:12:10.968Z,8.00
2018-07-04T02:13:10.973Z,8.00
2018-07-04T02:14:10.969Z,8.00
2018-07-04T02:15:10.983Z,8.00
2018-07-04T02:16:10.970Z,8.00
2018-07-04T02:17:10.971Z,8.00
2018-07-04T02:18:10.969Z,8.00
2018-07-04T02:19:11.081Z,8.00
2018-07-04T02:20:10.970Z,8.00
2018-07-04T02:21:10.969Z,8.00
2018-07-04T02:22:10.970Z,8.00
2018-07-04T02:23:10.968Z,4.00
2018-07-04T02:24:10.968Z,4.00
2018-07-04T02:25:10.969Z,4.00
2018-07-04T02:26:10.969Z,8.00
2018-07-04T02:27:10.969Z,8.00
2018-07-04T02:28:10.978Z,8.00
2018-07-04T02:29:10.982Z,8.00
2018-07-04T02:30:10.970Z,8.00
2018-07-04T02:31:10.977Z,8.00
2018-07-04T02:32:10.987Z,8.00
2018-07-04T02:33:10.968Z,12.00
2018-07-04T02:34:10.976Z,12.00
2018-07-04T02:35:10.968Z,8.00
2018-07-04T02:36:10.969Z,4.00
2018-07-04T02:37:10.970Z,8.00
2018-07-04T02:38:10.980Z,8.00
2018-07-04T02:39:10.969Z,8.00
2018-07-04T02:40:10.968Z,8.00
2018-07-04T02:41:10.968Z,8.00
2018-07-04T02:42:10.984Z,8.00
2018-07-04T02:43:10.967Z,12.00
2018-07-04T02:44:10.969Z,12.00
2018-07-04T02:45:10.968Z,12.00
2018-07-04T02:46:10.977Z,12.00
2018-07-04T02:47:10.969Z,16.00
2018-07-04T02:48:10.969Z,16.00
2018-07-04T02:49:10.969Z,20.00
2018-07-04T02:50:10.967Z,20.00
2018-07-04T02:51:10.966Z,24.00
2018-07-04T02:52:10.969Z,24.00
2018-07-04T02:53:10.966Z,28.00
2018-07-04T02:54:10.966Z,32.00
2018-07-04T02:55:10.965Z,32.00
2018-07-04T02:56:10.971Z,36.00
2018-07-04T02:57:10.966Z,36.00
2018-07-04T02:58:10.969Z,40.00
2018-07-04T02:59:10.980Z,48.00
2018-07-04T03:00:10.964Z,48.00
2018-07-04T03:01:10.963Z,52.00
2018-07-04T03:02:10.964Z,56.00
2018-07-04T03:03:10.964Z,64.00
2018-07-04T03:04:10.963Z,64.00
2018-07-04T03:05:10.963Z,72.00
2018-07-04T03:06:10.964Z,76.00
2018-07-04T03:07:10.963Z,84.00
2018-07-04T03:08:10.962Z,88.00
2018-07-04T03:09:10.961Z,96.00
2018-07-04T03:10:10.960Z,104.00
2018-07-04T03:11:10.960Z,108.00
2018-07-04T03:12:10.960Z,116.00
2018-07-04T03:13:10.960Z,120.00
2018-07-04T03:14:10.960Z,132.00
2018-07-04T03:15:10.958Z,136.00
2018-07-04T03:16:10.957Z,144.00
2018-07-04T03:17:10.958Z,156.00
2018-07-04T03:18:38.525Z,160.00
2018-07-04T03:19:10.957Z,172.00
2018-07-04T03:20:10.961Z,176.00
2018-07-04T03:21:10.956Z,188.00
2018-07-04T03:22:10.956Z,192.00
2018-07-04T03:23:10.953Z,204.00
2018-07-04T03:24:10.957Z,212.00
2018-07-04T03:25:10.952Z,224.00
2018-07-04T03:26:10.952Z,236.00
2018-07-04T03:27:10.951Z,256.00
2018-07-04T03:28:10.957Z,272.00
2018-07-04T03:29:10.948Z,292.00
2018-07-04T03:30:10.957Z,304.00
2018-07-04T03:31:10.948Z,312.00
2018-07-04T03:32:10.949Z,328.00
2018-07-04T03:33:10.947Z,340.00
2018-07-04T03:34:10.947Z,356.00
2018-07-04T03:35:10.947Z,372.00
2018-07-04T03:36:10.944Z,388.00
2018-07-04T03:37:10.948Z,400.00
2018-07-04T03:38:10.943Z,420.00
2018-07-04T03:39:10.944Z,436.00
2018-07-04T03:40:10.942Z,452.00
2018-07-04T03:41:10.943Z,476.00
2018-07-04T03:42:10.941Z,492.00
2018-07-04T03:43:10.939Z,512.00
2018-07-04T03:44:10.939Z,528.00
2018-07-04T03:45:10.938Z,552.00
2018-07-04T03:46:10.940Z,572.00
2018-07-04T03:47:10.935Z,596.00
2018-07-04T03:48:10.937Z,612.00
2018-07-04T03:49:10.938Z,636.00
2018-07-04T03:50:10.934Z,652.00
2018-07-04T03:51:10.934Z,672.00
2018-07-04T03:52:10.936Z,688.00
2018-07-04T03:53:10.935Z,708.00
2018-07-04T03:54:10.933Z,728.00
2018-07-04T03:55:10.932Z,748.00
2018-07-04T03:56:10.932Z,768.00
2018-07-04T03:57:10.932Z,788.00
2018-07-04T03:58:10.945Z,808.00
2018-07-04T03:59:10.930Z,824.00
2018-07-04T04:00:10.929Z,844.00
2018-07-04T04:01:10.935Z,868.00
2018-07-04T04:02:10.928Z,880.00
2018-07-04T04:03:10.927Z,900.00
2018-07-04T04:04:10.932Z,924.00
2018-07-04T04:05:10.926Z,948.00
2018-07-04T04:06:10.927Z,968.00
2018-07-04T04:07:10.926Z,996.00
2018-07-04T04:08:10.937Z,1020.00
2018-07-04T04:09:10.927Z,1048.00
2018-07-04T04:10:10.926Z,1072.00
2018-07-04T04:11:10.924Z,1092.00
2018-07-04T04:12:10.924Z,1112.00
2018-07-04T04:13:10.923Z,1136.00
2018-07-04T04:14:10.923Z,1152.00
2018-07-04T04:15:10.923Z,1176.00
2018-07-04T04:16:10.923Z,1200.00
2018-07-04T04:17:10.923Z,1224.00
2018-07-04T04:18:10.922Z,1248.00
2018-07-04T04:19:10.921Z,1276.00
2018-07-04T04:20:10.921Z,1300.00
2018-07-04T04:21:10.936Z,1332.00
2018-07-04T04:22:10.920Z,1364.00
2018-07-04T04:23:10.922Z,1404.00
2018-07-04T04:24:10.920Z,1444.00
2018-07-04T04:25:10.919Z,1484.00
2018-07-04T04:26:10.918Z,1532.00
2018-07-04T04:27:10.948Z,1584.00
2018-07-04T04:28:10.918Z,1640.00
2018-07-04T04:29:10.918Z,1696.00
2018-07-04T04:30:10.922Z,1756.00
2018-07-04T04:31:10.920Z,1820.00
2018-07-04T04:32:10.921Z,1892.00
2018-07-04T04:33:10.917Z,1964.00
2018-07-04T04:34:10.917Z,2032.00
2018-07-04T04:35:10.917Z,2100.00
2018-07-04T04:36:10.935Z,2216.00
2018-07-04T04:37:10.915Z,2232.00
2018-07-04T04:38:10.917Z,2304.00
2018-07-04T04:39:10.914Z,2376.00
2018-07-04T04:40:10.918Z,2452.00
2018-07-04T04:41:10.920Z,2532.00
2018-07-04T04:42:10.915Z,2612.00
2018-07-04T04:43:10.913Z,2704.00
2018-07-04T04:44:10.917Z,2804.00
2018-07-04T04:45:10.913Z,2904.00
2018-07-04T04:46:10.914Z,3012.00
2018-07-04T04:47:10.915Z,3108.00
2018-07-04T04:48:10.912Z,3196.00
2018-07-04T04:49:10.914Z,3284.00
2018-07-04T04:50:10.916Z,3356.00
2018-07-04T04:51:10.913Z,3424.00
2018-07-04T04:52:10.913Z,3488.00
2018-07-04T04:53:10.915Z,3552.00
2018-07-04T04:54:10.915Z,3624.00
2018-07-04T04:55:10.915Z,3700.00
2018-07-04T04:56:10.915Z,3772.00
2018-07-04T04:57:10.915Z,3844.00
2018-07-04T04:58:10.916Z,3936.00
2018-07-04T04:59:10.914Z,4028.00
2018-07-04T05:00:10.915Z,4132.00
2018-07-04T05:01:10.914Z,4232.00
2018-07-04T05:02:10.920Z,4340.00
2018-07-04T05:03:10.916Z,4448.00
2018-07-04T05:04:10.919Z,4568.00
2018-07-04T05:05:10.917Z,4680.00
2018-07-04T05:06:10.918Z,4776.00
2018-07-04T05:07:10.918Z,4872.00
2018-07-04T05:08:10.920Z,4972.00
2018-07-04T05:09:10.922Z,5060.00
2018-07-04T05:10:10.920Z,5132.00
2018-07-04T05:11:10.919Z,5220.00
2018-07-04T05:12:10.921Z,5352.00
2018-07-04T05:13:10.922Z,6332.00
2018-07-04T05:14:10.925Z,8988.00
2018-07-04T05:15:10.923Z,13248.00
2018-07-04T05:16:10.931Z,14592.00
2018-07-04T05:17:10.927Z,11836.00
2018-07-04T05:18:10.927Z,8496.00
2018-07-04T05:19:10.932Z,8384.00
2018-07-04T05:20:10.931Z,13312.00
2018-07-04T05:21:10.933Z,17152.00
2018-07-04T05:22:10.937Z,15936.00
2018-07-04T05:23:10.940Z,11604.00
2018-07-04T05:24:10.938Z,8556.00
2018-07-04T05:25:10.944Z,7092.00
2018-07-04T05:26:10.947Z,7704.00
2018-07-04T05:27:10.945Z,8596.00
2018-07-04T05:28:10.973Z,10192.00
2018-07-04T05:29:10.949Z,9192.00
2018-07-04T05:30:10.955Z,7760.00
2018-07-04T05:31:10.955Z,10116.00
2018-07-04T05:32:10.960Z,11028.00
2018-07-04T05:33:10.967Z,8532.00
2018-07-04T05:34:10.973Z,7648.00
2018-07-04T05:35:11.015Z,11032.00
2018-07-04T05:36:10.979Z,20416.00
2018-07-04T05:37:10.980Z,22464.00
2018-07-04T05:38:10.976Z,14688.00
2018-07-04T05:39:10.978Z,16256.00
2018-07-04T05:40:10.984Z,14880.00
2018-07-04T05:41:10.991Z,12076.00
2018-07-04T05:42:10.991Z,10196.00
2018-07-04T05:43:10.996Z,8100.00
2018-07-04T05:44:10.997Z,7572.00
2018-07-04T05:45:11.004Z,7556.00
2018-07-04T05:46:11.011Z,7560.00
2018-07-04T05:47:11.023Z,7576.00
2018-07-04T05:48:11.013Z,7588.00
2018-07-04T05:49:11.016Z,7608.00
2018-07-04T05:50:11.019Z,7620.00
2018-07-04T05:51:11.038Z,7640.00
2018-07-04T05:52:11.031Z,7716.00
2018-07-04T05:53:11.088Z,7652.00
2018-07-04T05:54:11.034Z,7712.00
2018-07-04T05:55:11.036Z,7768.00
2018-07-04T05:56:11.071Z,9312.00
2018-07-04T05:57:11.043Z,12164.00
2018-07-04T05:58:11.051Z,13160.00
2018-07-04T05:59:11.071Z,13224.00
2018-07-04T06:00:11.053Z,12176.00
2018-07-04T06:01:11.056Z,9608.00
2018-07-04T06:02:11.059Z,8048.00
2018-07-04T06:03:11.088Z,7992.00
2018-07-04T06:04:11.074Z,8236.00
2018-07-04T06:05:11.069Z,9992.00
2018-07-04T06:06:11.081Z,11796.00
2018-07-04T06:07:11.253Z,9144.00
2018-07-04T06:08:11.085Z,7708.00
2018-07-04T06:09:11.091Z,7692.00
2018-07-04T06:10:11.086Z,7672.00
2018-07-04T06:11:11.088Z,7652.00
2018-07-04T06:12:11.091Z,7596.00
2018-07-04T06:13:11.100Z,7572.00
2018-07-04T06:14:11.099Z,7736.00
2018-07-04T06:15:11.110Z,9796.00
2018-07-04T06:16:11.105Z,13444.00
2018-07-04T06:17:11.109Z,13344.00
2018-07-04T06:18:11.111Z,10604.00
2018-07-04T06:19:11.118Z,9720.00
2018-07-04T06:20:11.122Z,11508.00
2018-07-04T06:21:11.144Z,11996.00
2018-07-04T06:22:11.130Z,8828.00
2018-07-04T06:23:11.133Z,7376.00
2018-07-04T06:24:11.133Z,7264.00
2018-07-04T06:25:11.138Z,7196.00
2018-07-04T06:26:11.141Z,7152.00
2018-07-04T06:27:11.143Z,7068.00
2018-07-04T06:28:11.148Z,6940.00
2018-07-04T06:29:11.153Z,6960.00
2018-07-04T06:30:11.156Z,6912.00
2018-07-04T06:31:11.166Z,6872.00
2018-07-04T06:32:11.164Z,6824.00
2018-07-04T06:33:11.170Z,6764.00
2018-07-04T06:34:11.171Z,6708.00
2018-07-04T06:35:11.173Z,6644.00
2018-07-04T06:36:11.180Z,6752.00
2018-07-04T06:37:11.182Z,6688.00
2018-07-04T06:38:11.185Z,6648.00
2018-07-04T06:39:11.226Z,6584.00
2018-07-04T06:40:11.452Z,6500.00
2018-07-04T06:41:11.364Z,6824.00
2018-07-04T06:42:11.338Z,6316.00
2018-07-04T06:43:11.203Z,6248.00
2018-07-04T06:44:11.316Z,6140.00
2018-07-04T06:45:11.212Z,6084.00
2018-07-04T06:46:11.215Z,5940.00
2018-07-04T06:47:11.217Z,5924.00
2018-07-04T06:48:11.458Z,5836.00
2018-07-04T06:49:11.262Z,5740.00
2018-07-04T06:50:11.230Z,5656.00
2018-07-04T06:51:11.233Z,5552.00
2018-07-04T06:52:11.236Z,5428.00
2018-07-04T06:53:11.242Z,5364.00
2018-07-04T06:54:11.290Z,5248.00
2018-07-04T06:55:11.247Z,5148.00
2018-07-04T06:56:11.251Z,5028.00
2018-07-04T06:57:11.256Z,4920.00
2018-07-04T06:58:11.263Z,4804.00
2018-07-04T06:59:11.265Z,4692.00
2018-07-04T07:00:11.268Z,4564.00
2018-07-04T07:01:11.283Z,4452.00
2018-07-04T07:02:11.275Z,4276.00
2018-07-04T07:03:11.280Z,4052.00
2018-07-04T07:04:11.281Z,3800.00
2018-07-04T07:05:11.293Z,3536.00
2018-07-04T07:06:11.291Z,3144.00
2018-07-04T07:07:11.295Z,2912.00
2018-07-04T07:08:11.338Z,2608.00
2018-07-04T07:09:11.363Z,2388.00
2018-07-04T07:10:11.306Z,2224.00
2018-07-04T07:11:11.308Z,2080.00
2018-07-04T07:12:11.313Z,1944.00
2018-07-04T07:13:11.319Z,1808.00
2018-07-04T07:14:11.333Z,1724.00
2018-07-04T07:15:11.324Z,1660.00
2018-07-04T07:16:11.402Z,1624.00
2018-07-04T07:17:11.378Z,1592.00
2018-07-04T07:18:11.369Z,1576.00
2018-07-04T07:19:11.359Z,1544.00
2018-07-04T07:20:11.344Z,1536.00
2018-07-04T07:21:11.360Z,1524.00
2018-07-04T07:22:11.352Z,1508.00
2018-07-04T07:23:11.355Z,1492.00
2018-07-04T07:24:11.357Z,1480.00
2018-07-04T07:25:11.424Z,1464.00
2018-07-04T07:26:11.367Z,1452.00
2018-07-04T07:27:11.370Z,1436.00
2018-07-04T07:28:11.374Z,1432.00
2018-07-04T07:29:11.377Z,1428.00
2018-07-04T07:30:11.382Z,1436.00
2018-07-04T07:31:11.387Z,1440.00
2018-07-04T07:32:11.389Z,1440.00
2018-07-04T07:33:11.393Z,1444.00
2018-07-04T07:34:11.474Z,1448.00
2018-07-04T07:35:11.408Z,1448.00
2018-07-04T07:36:11.403Z,1448.00
2018-07-04T07:37:11.408Z,1460.00
2018-07-04T07:38:11.633Z,1460.00
2018-07-04T07:39:11.413Z,1448.00
2018-07-04T07:40:11.707Z,1464.00
2018-07-04T07:41:11.485Z,1472.00
2018-07-04T07:42:11.519Z,1476.00
2018-07-04T07:43:11.658Z,1476.00
2018-07-04T07:44:11.568Z,1476.00
2018-07-04T07:45:11.459Z,1472.00
2018-07-04T07:46:11.442Z,1468.00
2018-07-04T07:47:11.639Z,1460.00
2018-07-04T07:48:12.080Z,1444.00
2018-07-04T07:49:12.387Z,1436.00
2018-07-04T07:50:11.536Z,1428.00
2018-07-04T07:51:11.679Z,1492.00
2018-07-04T07:52:12.585Z,1420.00
2018-07-04T07:53:12.599Z,1416.00
2018-07-04T07:54:11.574Z,1408.00
2018-07-04T07:55:11.651Z,1396.00
2018-07-04T07:56:12.570Z,1388.00
2018-07-04T07:57:11.627Z,1376.00
2018-07-04T07:58:11.507Z,1360.00
2018-07-04T07:59:12.573Z,1404.00
2018-07-04T08:00:11.759Z,1356.00
2018-07-04T08:01:11.711Z,1364.00
2018-07-04T08:02:11.697Z,1372.00
2018-07-04T08:03:11.761Z,1388.00
2018-07-04T08:04:11.732Z,1400.00
2018-07-04T08:05:12.597Z,1408.00
2018-07-04T08:06:11.768Z,1416.00
2018-07-04T08:07:12.617Z,1420.00
2018-07-04T08:08:11.672Z,1428.00
2018-07-04T08:09:11.702Z,1428.00
2018-07-04T08:10:11.704Z,1428.00
2018-07-04T08:11:11.799Z,1436.00
2018-07-04T08:12:13.180Z,1452.00
2018-07-04T08:13:11.892Z,1468.00
2018-07-04T08:14:11.853Z,1480.00
2018-07-04T08:15:12.597Z,1488.00
2018-07-04T08:16:13.618Z,1496.00
2018-07-04T08:17:13.193Z,1516.00
2018-07-04T08:18:12.108Z,1520.00
2018-07-04T08:19:11.869Z,1540.00
2018-07-04T08:20:11.743Z,1548.00
2018-07-04T08:21:11.685Z,1556.00
2018-07-04T08:22:12.542Z,1572.00
2018-07-04T08:23:12.591Z,1584.00
2018-07-04T08:24:12.555Z,1584.00
2018-07-04T08:25:12.569Z,1608.00
2018-07-04T08:26:13.122Z,1624.00
2018-07-04T08:27:13.090Z,1636.00
2018-07-04T08:28:11.684Z,1656.00
2018-07-04T08:29:14.052Z,1820.00
2018-07-04T08:30:12.679Z,1692.00
2018-07-04T08:31:12.297Z,1720.00
2018-07-04T08:32:12.225Z,1752.00
2018-07-04T08:33:13.128Z,1800.00
2018-07-04T08:34:12.801Z,2328.00
2018-07-04T08:35:12.721Z,2932.00
2018-07-04T08:36:13.544Z,2960.00
2018-07-04T08:37:12.016Z,2596.00
2018-07-04T08:38:11.957Z,2992.00
2018-07-04T08:39:12.595Z,4088.00
2018-07-04T08:40:12.609Z,4532.00
2018-07-04T08:41:12.671Z,4604.00
2018-07-04T08:42:15.594Z,4628.00
2018-07-04T08:43:12.700Z,4688.00
2018-07-04T08:44:12.629Z,4716.00
2018-07-04T08:45:11.921Z,4764.00
2018-07-04T08:46:11.769Z,4812.00
2018-07-04T08:47:12.608Z,4816.00
2018-07-04T08:48:13.551Z,4860.00
2018-07-04T08:49:12.596Z,4896.00
2018-07-04T08:50:11.823Z,4932.00
2018-07-04T08:51:12.616Z,4868.00
2018-07-04T08:52:12.617Z,4780.00
2018-07-04T08:53:12.593Z,4912.00
2018-07-04T08:54:12.610Z,5020.00
2018-07-04T08:55:12.596Z,5108.00
2018-07-04T08:56:14.083Z,5164.00
2018-07-04T08:57:12.478Z,5220.00
2018-07-04T08:58:13.096Z,5208.00
2018-07-04T08:59:12.585Z,5232.00
2018-07-04T09:00:12.721Z,5252.00
2018-07-04T09:01:12.066Z,5360.00
2018-07-04T09:02:13.231Z,5276.00
2018-07-04T09:03:13.408Z,5372.00
2018-07-04T09:04:13.283Z,5324.00
2018-07-04T09:05:12.817Z,5284.00
2018-07-04T09:06:13.341Z,5292.00
2018-07-04T09:07:12.610Z,5348.00
2018-07-04T09:08:12.249Z,5492.00
2018-07-04T09:09:12.654Z,5524.00
2018-07-04T09:10:13.176Z,5352.00
2018-07-04T09:11:12.148Z,5256.00
2018-07-04T09:12:13.144Z,5628.00
2018-07-04T09:13:13.692Z,8652.00
2018-07-04T09:14:12.079Z,9076.00
2018-07-04T09:15:13.101Z,9104.00
2018-07-04T09:16:13.137Z,9168.00
2018-07-04T09:17:12.667Z,9420.00
2018-07-04T09:18:13.252Z,9472.00
2018-07-04T09:19:12.393Z,6068.00
2018-07-04T09:20:12.642Z,4900.00
2018-07-04T09:21:13.333Z,6984.00
2018-07-04T09:22:13.560Z,7508.00
2018-07-04T09:23:13.108Z,8204.00
2018-07-04T09:24:12.390Z,8896.00
2018-07-04T09:25:12.157Z,9432.00
2018-07-04T09:26:12.456Z,10304.00
2018-07-04T09:27:12.116Z,10784.00
2018-07-04T09:28:12.123Z,11184.00
2018-07-04T09:29:12.132Z,12200.00
2018-07-04T09:30:12.162Z,13240.00
2018-07-04T09:31:12.156Z,13616.00
2018-07-04T09:32:12.169Z,13900.00
2018-07-04T09:33:12.186Z,13892.00
2018-07-04T09:34:12.462Z,13900.00
2018-07-04T09:35:12.209Z,14968.00
2018-07-04T09:36:12.226Z,15924.00
2018-07-04T09:37:12.237Z,17376.00
2018-07-04T09:38:12.253Z,18368.00
2018-07-04T09:39:12.273Z,18752.00
2018-07-04T09:40:12.279Z,19136.00
2018-07-04T09:41:12.484Z,19872.00
2018-07-04T09:42:12.309Z,20416.00
2018-07-04T09:43:12.322Z,20064.00
2018-07-04T09:44:12.375Z,19680.00
2018-07-04T09:45:12.353Z,19520.00
2018-07-04T09:46:12.370Z,20192.00
2018-07-04T09:47:12.519Z,21088.00
2018-07-04T09:48:12.399Z,22432.00
2018-07-04T09:49:12.415Z,23968.00
2018-07-04T09:50:12.495Z,26720.00
2018-07-04T09:51:12.458Z,27424.00
2018-07-04T09:52:12.474Z,28384.00
2018-07-04T09:53:12.473Z,26912.00
2018-07-04T09:54:12.493Z,25472.00
2018-07-04T09:55:12.671Z,25792.00
2018-07-04T09:56:12.518Z,26464.00
2018-07-04T09:57:12.533Z,24992.00
2018-07-04T09:58:12.550Z,23104.00
2018-07-04T09:59:12.568Z,23488.00
2018-07-04T10:00:12.584Z,24480.00
2018-07-04T10:01:12.597Z,26336.00
2018-07-04T10:02:12.615Z,26336.00
2018-07-04T10:03:12.646Z,26208.00
2018-07-04T10:04:12.649Z,25248.00
2018-07-04T10:05:12.665Z,25312.00
2018-07-04T10:06:12.681Z,26112.00
2018-07-04T10:07:12.699Z,28736.00
2018-07-04T10:08:12.717Z,31584.00
2018-07-04T10:09:12.775Z,30944.00
2018-07-04T10:10:12.749Z,30080.00
2018-07-04T10:11:12.768Z,30016.00
2018-07-04T10:12:12.784Z,30624.00
2018-07-04T10:13:12.801Z,30880.00
2018-07-04T10:14:12.821Z,28032.00
2018-07-04T10:15:12.842Z,21888.00
2018-07-04T10:16:12.855Z,20928.00
2018-07-04T10:17:12.879Z,26272.00
2018-07-04T10:18:12.933Z,29248.00
2018-07-04T10:19:12.909Z,31552.00
2018-07-04T10:20:12.928Z,31904.00
2018-07-04T10:21:12.947Z,31744.00
2018-07-04T10:22:12.964Z,31456.00
2018-07-04T10:23:13.012Z,31584.00
2018-07-04T10:24:13.001Z,31552.00
2018-07-04T10:25:13.604Z,31392.00
2018-07-04T10:26:13.039Z,30336.00
2018-07-04T10:27:13.066Z,31328.00
2018-07-04T10:28:13.075Z,33504.00
2018-07-04T10:29:13.100Z,34560.00
2018-07-04T10:30:13.113Z,34464.00
2018-07-04T10:31:13.158Z,35840.00
2018-07-04T10:32:13.160Z,36288.00
2018-07-04T10:33:13.174Z,34144.00
2018-07-04T10:34:13.192Z,32448.00
2018-07-04T10:35:13.208Z,32704.00
2018-07-04T10:36:13.231Z,34688.00
2018-07-04T10:37:13.277Z,35456.00
2018-07-04T10:38:13.267Z,35104.00
2018-07-04T10:39:13.295Z,35904.00
2018-07-04T10:40:13.306Z,35488.00
2018-07-04T10:41:13.327Z,36960.00
2018-07-04T10:42:13.347Z,34016.00
2018-07-04T10:43:13.369Z,31488.00
2018-07-04T10:44:13.385Z,28896.00
2018-07-04T10:45:13.410Z,27552.00
2018-07-04T10:46:13.427Z,27200.00
2018-07-04T10:47:13.454Z,27616.00
2018-07-04T10:48:13.467Z,27904.00
2018-07-04T10:49:13.488Z,28544.00
2018-07-04T10:50:13.508Z,27840.00
2018-07-04T10:51:13.524Z,28288.00
2018-07-04T10:52:13.542Z,29312.00
2018-07-04T10:53:13.562Z,31168.00
2018-07-04T10:54:13.580Z,31648.00
2018-07-04T10:55:13.603Z,30208.00
2018-07-04T10:56:13.636Z,28480.00
2018-07-04T10:57:13.637Z,31040.00
2018-07-04T10:58:13.657Z,34816.00
2018-07-04T10:59:13.674Z,37152.00
2018-07-04T11:00:13.694Z,35008.00
2018-07-04T11:01:13.709Z,32992.00
2018-07-04T11:02:13.728Z,33600.00
2018-07-04T11:03:13.765Z,35872.00
2018-07-04T11:04:13.765Z,39232.00
2018-07-04T11:05:13.781Z,39072.00
2018-07-04T11:06:13.816Z,40288.00
2018-07-04T11:07:13.818Z,40512.00
2018-07-04T11:08:13.837Z,40064.00
2018-07-04T11:09:13.866Z,38496.00
2018-07-04T11:10:13.912Z,35744.00
2018-07-04T11:11:13.896Z,33728.00
2018-07-04T11:12:13.921Z,34592.00
2018-07-04T11:13:13.931Z,36800.00
2018-07-04T11:14:13.950Z,36704.00
2018-07-04T11:15:13.967Z,36064.00
2018-07-04T11:16:13.986Z,36128.00
2018-07-04T11:17:14.010Z,37120.00
2018-07-04T11:18:14.025Z,40160.00
2018-07-04T11:19:14.042Z,42144.00
2018-07-04T11:20:14.064Z,41440.00
2018-07-04T11:21:14.081Z,43456.00
2018-07-04T11:22:14.143Z,44768.00
2018-07-04T11:23:14.116Z,45216.00
2018-07-04T11:24:14.133Z,46752.00
2018-07-04T11:25:14.152Z,46080.00
2018-07-04T11:26:14.174Z,44000.00
2018-07-04T11:27:14.189Z,42656.00
2018-07-04T11:28:14.204Z,42240.00
2018-07-04T11:29:14.222Z,43456.00
2018-07-04T11:30:14.240Z,44480.00
2018-07-04T11:31:14.258Z,45120.00
2018-07-04T11:32:14.275Z,46816.00
2018-07-04T11:33:14.294Z,46848.00
2018-07-04T11:34:14.348Z,47808.00
2018-07-04T11:35:14.333Z,48608.00
2018-07-04T11:36:14.348Z,47904.00
2018-07-04T11:37:14.371Z,47392.00
2018-07-04T11:38:14.410Z,39712.00
2018-07-04T11:39:14.406Z,45728.00
2018-07-04T11:40:14.437Z,43392.00
2018-07-04T11:41:14.441Z,43520.00
2018-07-04T11:42:14.481Z,44128.00
2018-07-04T11:43:14.483Z,45952.00
2018-07-04T11:44:14.502Z,45920.00
2018-07-04T11:45:14.528Z,39872.00
2018-07-04T11:46:14.537Z,46848.00
2018-07-04T11:47:14.573Z,47840.00
2018-07-04T11:48:14.583Z,48032.00
2018-07-04T11:49:14.601Z,50080.00
2018-07-04T11:50:14.629Z,50240.00
2018-07-04T11:51:14.636Z,50176.00
2018-07-04T11:52:14.653Z,48640.00
2018-07-04T11:53:14.689Z,47584.00
2018-07-04T11:54:14.692Z,47456.00
2018-07-04T11:55:14.977Z,46560.00
2018-07-04T11:56:14.734Z,45472.00
2018-07-04T11:57:14.779Z,45984.00
2018-07-04T11:58:14.771Z,39008.00
2018-07-04T11:59:14.791Z,44160.00
2018-07-04T12:00:14.810Z,49376.00
2018-07-04T12:01:14.846Z,49248.00
2018-07-04T12:02:14.849Z,46240.00
2018-07-04T12:03:15.274Z,42688.00
2018-07-04T12:04:14.885Z,40896.00
2018-07-04T12:05:14.917Z,41984.00
2018-07-04T12:06:14.925Z,42976.00
2018-07-04T12:07:14.953Z,42176.00
2018-07-04T12:08:29.729Z,39584.00
2018-07-04T12:09:14.982Z,39968.00
2018-07-04T12:10:15.101Z,39904.00
2018-07-04T12:11:21.714Z,37280.00
2018-07-04T12:12:15.109Z,37408.00
2018-07-04T12:13:15.061Z,39680.00
2018-07-04T12:14:15.108Z,43360.00
2018-07-04T12:15:15.104Z,44672.00
2018-07-04T12:16:15.216Z,47264.00
2018-07-04T12:17:15.142Z,48864.00